createdAt,value
2018-09-09T00:01:23.931Z,100119.90
2018-09-09T00:02:59.414Z,100123.05
2018-09-09T00:04:34.946Z,100129.67
2018-09-09T00:06:10.474Z,100119.19
2018-09-09T00:07:45.984Z,100121.00
2018-09-09T00:09:26.849Z,100125.24
2018-09-09T00:11:02.315Z,100126.27
2018-09-09T00:12:37.800Z,100124.86
2018-09-09T00:14:13.573Z,100123.33
2018-09-09T00:15:49.105Z,100111.97
2018-09-09T00:17:24.575Z,100108.34
2018-09-09T00:19:00.129Z,100105.02
2018-09-09T00:20:35.629Z,100094.89
2018-09-09T00:22:11.235Z,100091.00
2018-09-09T00:23:46.756Z,100095.67
2018-09-09T00:25:22.282Z,100095.67
2018-09-09T00:26:57.798Z,100094.97
2018-09-09T00:28:33.356Z,100103.69
2018-09-09T00:30:08.886Z,100111.72
2018-09-09T00:31:44.464Z,100117.70
2018-09-09T00:33:19.985Z,100113.52
2018-09-09T00:34:55.554Z,100118.37
2018-09-09T00:36:31.068Z,100127.97
2018-09-09T00:38:06.620Z,100131.63
2018-09-09T00:39:42.151Z,100132.82
2018-09-09T00:41:17.703Z,100134.44
2018-09-09T00:42:53.254Z,100135.28
2018-09-09T00:44:28.830Z,100142.52
2018-09-09T00:46:04.342Z,100143.32
2018-09-09T00:47:39.851Z,100148.02
2018-09-09T00:49:20.738Z,100141.39
2018-09-09T00:51:01.651Z,100145.87
2018-09-09T00:52:42.504Z,100147.07
2018-09-09T00:54:18.075Z,100145.98
2018-09-09T00:55:53.613Z,100142.16
2018-09-09T00:57:29.218Z,100140.98
2018-09-09T00:59:05.049Z,100142.69
2018-09-09T01:00:45.873Z,100138.02
2018-09-09T01:02:21.809Z,100143.58
2018-09-09T01:03:57.369Z,100145.84
2018-09-09T01:05:32.956Z,100135.27
2018-09-09T01:07:08.448Z,100127.42
2018-09-09T01:08:44.027Z,100066.28
2018-09-09T01:10:19.764Z,100121.45
2018-09-09T01:11:55.298Z,100104.36
2018-09-09T01:13:30.847Z,100103.52
2018-09-09T01:15:06.567Z,100114.83
2018-09-09T01:16:42.059Z,100118.09
2018-09-09T01:18:17.539Z,100120.38
2018-09-09T01:19:53.116Z,100113.39
2018-09-09T01:21:28.597Z,100110.53
2018-09-09T01:23:04.096Z,100113.17
2018-09-09T01:24:39.683Z,100112.33
2018-09-09T01:26:15.231Z,100064.59
2018-09-09T01:27:50.741Z,100111.00
2018-09-09T01:29:26.213Z,100109.42
2018-09-09T01:31:01.745Z,100107.96
2018-09-09T01:32:44.001Z,100109.52
2018-09-09T01:34:19.581Z,100116.13
2018-09-09T01:35:54.995Z,100116.23
2018-09-09T01:37:30.530Z,100121.98
2018-09-09T01:39:07.510Z,100123.79
2018-09-09T01:40:43.001Z,100124.87
2018-09-09T01:42:18.485Z,100121.42
2018-09-09T01:43:54.036Z,100122.37
2018-09-09T01:45:29.527Z,100122.98
2018-09-09T01:47:05.098Z,100120.58
2018-09-09T01:48:40.643Z,100121.05
2018-09-09T01:50:16.319Z,100131.73
2018-09-09T01:51:51.921Z,100131.81
2018-09-09T01:53:27.482Z,100135.83
2018-09-09T01:55:02.986Z,100134.98
2018-09-09T01:56:38.487Z,100139.33
2018-09-09T01:58:13.979Z,100135.21
2018-09-09T01:59:49.581Z,100139.66
2018-09-09T02:01:25.205Z,100140.84
2018-09-09T02:03:00.675Z,100146.50
2018-09-09T02:04:36.185Z,100154.31
2018-09-09T02:06:11.718Z,100149.48
2018-09-09T02:07:47.303Z,100154.92
2018-09-09T02:09:22.812Z,100150.71
2018-09-09T02:11:00.579Z,100157.79
2018-09-09T02:12:36.102Z,100152.45
2018-09-09T02:14:11.714Z,100118.63
2018-09-09T02:15:47.215Z,100149.78
2018-09-09T02:17:22.759Z,100149.78
2018-09-09T02:18:58.321Z,100154.12
2018-09-09T02:20:33.794Z,100161.31
2018-09-09T02:22:09.317Z,100158.52
2018-09-09T02:23:44.818Z,100152.88
2018-09-09T02:25:20.351Z,100152.98
2018-09-09T02:26:55.882Z,100150.57
2018-09-09T02:28:31.375Z,100151.09
2018-09-09T02:30:06.963Z,100146.88
2018-09-09T02:31:42.443Z,100147.61
2018-09-09T02:33:17.962Z,100152.66
2018-09-09T02:34:53.544Z,100153.98
2018-09-09T02:36:29.075Z,100150.02
2018-09-09T02:38:04.660Z,100152.28
2018-09-09T02:39:40.142Z,100149.68
2018-09-09T02:41:15.674Z,100149.91
2018-09-09T02:42:51.263Z,100155.64
2018-09-09T02:44:26.767Z,100152.04
2018-09-09T02:46:02.314Z,100153.61
2018-09-09T02:47:38.155Z,100146.28
2018-09-09T02:49:13.753Z,100146.03
2018-09-09T02:50:49.310Z,100147.59
2018-09-09T02:52:24.842Z,100140.52
2018-09-09T02:54:00.427Z,100137.39
2018-09-09T02:55:40.122Z,100134.50
2018-09-09T02:57:15.637Z,100132.44
2018-09-09T02:58:51.245Z,100121.98
2018-09-09T03:00:26.797Z,100115.37
2018-09-09T03:02:02.308Z,100107.72
2018-09-09T03:03:37.829Z,100098.22
2018-09-09T03:05:13.422Z,100100.16
2018-09-09T03:06:48.958Z,100104.60
2018-09-09T03:08:24.466Z,100101.10
2018-09-09T03:10:00.024Z,100098.08
2018-09-09T03:11:35.575Z,100095.66
2018-09-09T03:13:11.087Z,100098.72
2018-09-09T03:14:46.601Z,100106.89
2018-09-09T03:16:22.065Z,100104.22
2018-09-09T03:17:57.610Z,100099.95
2018-09-09T03:19:33.152Z,100103.05
2018-09-09T03:21:08.654Z,100102.98
2018-09-09T03:22:44.139Z,100106.09
2018-09-09T03:24:19.663Z,100101.48
2018-09-09T03:25:55.185Z,100105.34
2018-09-09T03:27:30.718Z,100107.64
2018-09-09T03:29:06.224Z,100110.43
2018-09-09T03:30:41.750Z,100110.54
2018-09-09T03:32:17.304Z,100049.95
2018-09-09T03:33:52.791Z,100097.73
2018-09-09T03:35:28.310Z,100102.83
2018-09-09T03:37:03.906Z,100103.52
2018-09-09T03:38:39.400Z,100099.59
2018-09-09T03:40:14.984Z,100110.54
2018-09-09T03:41:50.617Z,100101.58
2018-09-09T03:43:26.109Z,100103.30
2018-09-09T03:45:01.600Z,100100.05
2018-09-09T03:46:37.089Z,100105.45
2018-09-09T03:48:12.720Z,100100.86
2018-09-09T03:49:48.620Z,100099.47
2018-09-09T03:51:24.099Z,100096.73
2018-09-09T03:52:59.608Z,100104.47
2018-09-09T03:54:35.100Z,100109.06
2018-09-09T03:56:10.629Z,100111.46
2018-09-09T03:57:46.199Z,100112.31
2018-09-09T03:59:21.750Z,100117.02
2018-09-09T04:00:57.269Z,100121.22
2018-09-09T04:02:33.099Z,100115.08
2018-09-09T04:04:08.629Z,100115.06
2018-09-09T04:05:44.173Z,100114.50
2018-09-09T04:07:19.671Z,100121.50
2018-09-09T04:08:55.207Z,100127.61
2018-09-09T04:10:30.711Z,100127.50
2018-09-09T04:12:06.274Z,100126.98
2018-09-09T04:13:43.023Z,100128.45
2018-09-09T04:15:18.569Z,100131.33
2018-09-09T04:17:00.756Z,100125.04
2018-09-09T04:18:36.391Z,100125.66
2018-09-09T04:20:11.931Z,100138.05
2018-09-09T04:21:50.111Z,100136.16
2018-09-09T04:23:25.722Z,100137.62
2018-09-09T04:25:01.220Z,100145.89
2018-09-09T04:26:36.751Z,100145.90
2018-09-09T04:28:12.275Z,100140.52
2018-09-09T04:29:47.907Z,100146.19
2018-09-09T04:31:23.410Z,100146.05
2018-09-09T04:32:58.912Z,100146.42
2018-09-09T04:34:34.465Z,100151.95
2018-09-09T04:36:10.025Z,100151.95
2018-09-09T04:37:45.549Z,100154.94
2018-09-09T04:39:21.120Z,100147.51
2018-09-09T04:40:56.737Z,100149.55
2018-09-09T04:42:32.266Z,100151.72
2018-09-09T04:44:08.040Z,100154.97
2018-09-09T04:45:43.891Z,100151.00
2018-09-09T04:47:19.602Z,100153.31
2018-09-09T04:48:55.102Z,100161.38
2018-09-09T04:50:30.582Z,100161.95
2018-09-09T04:52:06.101Z,100164.12
2018-09-09T04:53:41.652Z,100158.97
2018-09-09T04:55:17.157Z,100154.87
2018-09-09T04:56:52.724Z,100154.75
2018-09-09T04:58:28.265Z,100146.58
2018-09-09T05:00:03.858Z,100147.53
2018-09-09T05:01:39.365Z,100144.55
2018-09-09T05:03:15.086Z,100141.90
2018-09-09T05:04:50.678Z,100139.84
2018-09-09T05:06:26.290Z,100144.15
2018-09-09T05:08:01.985Z,100136.21
2018-09-09T05:09:39.041Z,100141.27
2018-09-09T05:11:15.192Z,100140.05
2018-09-09T05:12:50.992Z,100138.11
2018-09-09T05:14:26.794Z,100145.57
2018-09-09T05:16:02.383Z,100152.65
2018-09-09T05:17:37.979Z,100148.64
2018-09-09T05:19:13.587Z,100155.30
2018-09-09T05:20:49.068Z,100153.35
2018-09-09T05:22:24.615Z,100147.68
2018-09-09T05:24:00.149Z,100149.11
2018-09-09T05:25:35.734Z,100149.94
2018-09-09T05:27:11.314Z,100148.48
2018-09-09T05:28:46.779Z,100147.86
2018-09-09T05:30:22.352Z,100151.10
2018-09-09T05:31:58.069Z,100155.94
2018-09-09T05:33:33.719Z,100155.33
2018-09-09T05:35:09.251Z,100156.63
2018-09-09T05:36:44.894Z,100154.94
2018-09-09T05:38:20.414Z,100149.96
2018-09-09T05:39:56.100Z,100150.19
2018-09-09T05:41:31.611Z,100153.69
2018-09-09T05:43:07.200Z,100150.06
2018-09-09T05:44:42.755Z,100143.95
2018-09-09T05:46:18.340Z,100140.20
2018-09-09T05:47:53.862Z,100144.07
2018-09-09T05:49:29.552Z,100149.17
2018-09-09T05:51:05.698Z,99984.44
2018-09-09T05:52:41.302Z,100145.98
2018-09-09T05:54:16.812Z,100147.42
2018-09-09T05:55:52.455Z,100150.05
2018-09-09T05:57:28.093Z,100142.97
2018-09-09T05:59:03.635Z,100153.13
2018-09-09T06:00:39.182Z,100156.77
2018-09-09T06:02:14.718Z,100160.62
2018-09-09T06:03:50.264Z,100165.95
2018-09-09T06:05:25.838Z,100166.41
2018-09-09T06:07:01.479Z,100169.25
2018-09-09T06:08:37.002Z,100169.28
2018-09-09T06:10:12.675Z,100169.52
2018-09-09T06:11:48.277Z,100175.79
2018-09-09T06:13:25.606Z,100166.47
2018-09-09T06:15:01.165Z,100177.92
2018-09-09T06:16:36.756Z,100178.14
2018-09-09T06:18:12.355Z,100182.34
2018-09-09T06:19:47.968Z,100187.80
2018-09-09T06:21:25.501Z,100185.37
2018-09-09T06:23:01.286Z,100184.52
2018-09-09T06:24:36.818Z,100176.28
2018-09-09T06:26:12.701Z,100172.39
2018-09-09T06:27:49.202Z,100164.06
2018-09-09T06:29:24.767Z,100162.33
2018-09-09T06:31:00.933Z,100160.56
2018-09-09T06:32:36.536Z,100160.41
2018-09-09T06:34:13.467Z,100170.34
2018-09-09T06:35:49.143Z,100170.56
2018-09-09T06:37:24.675Z,100164.84
2018-09-09T06:39:00.381Z,100171.76
2018-09-09T06:40:35.879Z,100117.19
2018-09-09T06:42:11.421Z,100166.09
2018-09-09T06:43:46.987Z,100170.64
2018-09-09T06:45:22.544Z,100165.30
2018-09-09T06:46:58.449Z,100161.63
2018-09-09T06:48:34.201Z,100170.97
2018-09-09T06:50:10.008Z,100172.78
2018-09-09T06:53:34.171Z,100169.08
2018-09-09T06:55:09.728Z,100174.91
2018-09-09T06:56:45.457Z,100174.91
2018-09-09T06:58:21.307Z,100171.73
2018-09-09T07:00:01.140Z,100176.30
2018-09-09T07:01:37.566Z,100162.77
2018-09-09T07:03:13.068Z,100162.48
2018-09-09T07:04:48.996Z,100168.96
2018-09-09T07:06:28.681Z,100169.84
2018-09-09T07:08:04.181Z,100167.09
2018-09-09T07:09:39.714Z,100171.35
2018-09-09T07:11:15.387Z,100169.56
2018-09-09T07:12:50.959Z,100172.79
2018-09-09T07:14:26.503Z,100173.95
2018-09-09T07:16:02.169Z,100176.23
2018-09-09T07:17:37.811Z,100174.80
2018-09-09T07:19:13.457Z,100173.70
2018-09-09T07:20:49.248Z,100173.35
2018-09-09T07:22:24.884Z,100176.14
2018-09-09T07:24:00.509Z,100178.60
2018-09-09T07:25:36.104Z,100183.33
2018-09-09T07:27:11.733Z,100181.52
2018-09-09T07:28:47.323Z,100188.42
2018-09-09T07:30:22.936Z,100180.66
2018-09-09T07:31:58.501Z,100182.45
2018-09-09T07:33:34.065Z,100176.47
2018-09-09T07:35:09.650Z,100176.77
2018-09-09T07:36:45.190Z,100181.10
2018-09-09T07:38:20.816Z,100174.05
2018-09-09T07:39:56.483Z,100181.62
2018-09-09T07:41:31.997Z,100176.66
2018-09-09T07:43:07.810Z,100170.60
2018-09-09T07:44:43.340Z,100171.61
2018-09-09T07:46:18.945Z,100176.14
2018-09-09T07:47:54.450Z,100177.28
2018-09-09T07:49:29.992Z,100177.42
2018-09-09T07:51:05.635Z,100178.34
2018-09-09T07:52:41.192Z,100175.02
2018-09-09T07:54:16.857Z,100176.41
2018-09-09T07:55:52.431Z,100174.34
2018-09-09T07:57:28.519Z,100176.11
2018-09-09T07:59:04.160Z,100174.82
2018-09-09T08:00:39.740Z,100173.39
2018-09-09T08:02:15.324Z,100178.59
2018-09-09T08:03:51.790Z,100179.28
2018-09-09T08:05:27.674Z,100179.98
2018-09-09T08:07:03.272Z,100177.45
2018-09-09T08:08:41.141Z,100178.95
2018-09-09T08:10:16.700Z,100177.62
2018-09-09T08:11:52.261Z,100182.16
2018-09-09T08:13:27.850Z,100178.16
2018-09-09T08:15:03.407Z,100181.85
2018-09-09T08:16:39.097Z,100182.87
2018-09-09T08:18:14.728Z,100187.09
2018-09-09T08:19:50.356Z,100184.99
2018-09-09T08:21:25.935Z,100190.41
2018-09-09T08:23:01.462Z,100187.56
2018-09-09T08:24:37.044Z,100187.59
2018-09-09T08:26:12.639Z,100190.61
2018-09-09T08:27:48.222Z,100189.75
2018-09-09T08:29:23.770Z,100181.55
2018-09-09T08:30:59.328Z,100182.53
2018-09-09T08:32:35.135Z,100178.69
2018-09-09T08:34:10.609Z,100179.96
2018-09-09T08:35:46.108Z,100183.89
2018-09-09T08:37:21.665Z,100178.19
2018-09-09T08:38:57.266Z,100178.53
2018-09-09T08:40:32.852Z,100179.00
2018-09-09T08:42:08.402Z,100169.17
2018-09-09T08:43:43.970Z,100170.30
2018-09-09T08:45:19.583Z,100167.09
2018-09-09T08:46:55.107Z,100166.77
2018-09-09T08:48:30.662Z,100165.28
2018-09-09T08:50:06.274Z,100163.94
2018-09-09T08:51:41.858Z,100169.98
2018-09-09T08:53:17.399Z,100167.20
2018-09-09T08:54:52.976Z,100162.59
2018-09-09T08:56:29.083Z,100164.33
2018-09-09T08:58:05.327Z,100168.27
2018-09-09T08:59:41.353Z,100173.70
2018-09-09T09:01:17.560Z,100177.47
2018-09-09T09:02:53.876Z,100174.06
2018-09-09T09:04:29.529Z,100175.41
2018-09-09T09:06:05.124Z,100176.66
2018-09-09T09:07:40.730Z,100178.97
2018-09-09T09:09:16.343Z,100179.00
2018-09-09T09:10:51.914Z,100183.70
2018-09-09T09:12:27.488Z,100181.68
2018-09-09T09:14:03.128Z,100183.02
2018-09-09T09:15:38.699Z,100170.77
2018-09-09T09:17:14.408Z,100178.53
2018-09-09T09:18:49.984Z,100172.20
2018-09-09T09:20:25.663Z,100167.33
2018-09-09T09:22:01.199Z,100164.34
2018-09-09T09:23:36.880Z,100163.05
2018-09-09T09:25:12.412Z,100168.91
2018-09-09T09:26:48.998Z,100168.17
2018-09-09T09:28:24.726Z,100168.46
2018-09-09T09:30:00.231Z,100166.02
2018-09-09T09:31:35.903Z,100171.14
2018-09-09T09:33:11.572Z,100170.61
2018-09-09T09:34:47.174Z,100165.70
2018-09-09T09:36:22.795Z,100166.20
2018-09-09T09:37:58.534Z,100169.64
2018-09-09T09:39:34.271Z,100174.09
2018-09-09T09:41:09.874Z,100169.80
2018-09-09T09:42:45.460Z,100172.95
2018-09-09T09:44:21.038Z,100172.91
2018-09-09T09:45:56.712Z,100164.56
2018-09-09T09:47:32.420Z,100171.62
2018-09-09T09:49:22.766Z,100169.33
2018-09-09T09:50:58.381Z,100169.41
2018-09-09T09:52:34.024Z,100168.72
2018-09-09T09:54:09.761Z,100167.39
2018-09-09T09:55:45.451Z,100169.54
2018-09-09T09:57:21.058Z,100168.89
2018-09-09T09:59:03.528Z,100170.16
2018-09-09T10:00:44.466Z,100166.33
2018-09-09T10:02:20.373Z,100165.59
2018-09-09T10:03:55.960Z,100167.94
2018-09-09T10:05:31.910Z,100155.47
2018-09-09T10:07:07.559Z,100161.91
2018-09-09T10:08:43.084Z,100155.56
2018-09-09T10:10:18.678Z,100162.35
2018-09-09T10:11:54.232Z,100151.68
2018-09-09T10:13:29.765Z,100160.81
2018-09-09T10:15:05.611Z,100157.38
2018-09-09T10:16:41.136Z,100150.48
2018-09-09T10:18:16.682Z,100150.19
2018-09-09T10:19:52.231Z,100155.47
2018-09-09T10:21:27.832Z,100150.42
2018-09-09T10:23:03.373Z,100156.81
2018-09-09T10:24:38.888Z,100153.28
2018-09-09T10:26:14.534Z,100148.70
2018-09-09T10:27:50.090Z,100149.66
2018-09-09T10:29:25.683Z,100154.50
2018-09-09T10:31:01.243Z,100161.88
2018-09-09T10:32:36.938Z,100159.20
2018-09-09T10:34:12.554Z,100154.95
2018-09-09T10:35:48.550Z,100159.69
2018-09-09T10:37:24.092Z,100154.90
2018-09-09T10:38:59.644Z,100147.63
2018-09-09T10:40:35.160Z,100145.15
2018-09-09T10:42:10.711Z,100156.55
2018-09-09T10:43:46.296Z,100144.27
2018-09-09T10:45:21.826Z,100146.38
2018-09-09T10:46:57.422Z,100157.32
2018-09-09T10:48:33.329Z,100161.97
2018-09-09T10:50:08.950Z,100162.02
2018-09-09T10:51:44.532Z,100151.56
2018-09-09T10:53:21.204Z,100157.07
2018-09-09T10:54:56.845Z,100167.76
2018-09-09T10:56:33.598Z,100160.59
2018-09-09T10:58:09.166Z,100167.44
2018-09-09T10:59:44.927Z,100165.16
2018-09-09T11:01:20.466Z,100166.98
2018-09-09T11:02:55.997Z,100166.70
2018-09-09T11:04:31.576Z,100168.66
2018-09-09T11:06:07.195Z,100168.61
2018-09-09T11:07:42.700Z,100167.20
2018-09-09T11:09:18.633Z,100169.61
2018-09-09T11:10:54.233Z,100169.05
2018-09-09T11:12:31.712Z,100159.00
2018-09-09T11:14:07.267Z,100164.65
2018-09-09T11:15:42.835Z,100160.06
2018-09-09T11:17:18.567Z,100155.45
2018-09-09T11:18:54.142Z,100151.42
2018-09-09T11:20:30.193Z,100154.28
2018-09-09T11:22:05.811Z,100156.48
2018-09-09T11:23:41.370Z,100148.27
2018-09-09T11:25:16.906Z,100140.70
2018-09-09T11:26:52.450Z,100143.20
2018-09-09T11:28:27.980Z,100141.50
2018-09-09T11:30:03.799Z,100147.30
2018-09-09T11:31:39.304Z,100150.80
2018-09-09T11:33:14.851Z,100142.23
2018-09-09T11:34:50.349Z,100144.93
2018-09-09T11:36:25.865Z,100141.56
2018-09-09T11:38:01.563Z,100135.67
2018-09-09T11:39:37.033Z,100144.86
2018-09-09T11:41:12.631Z,100142.97
2018-09-09T11:42:49.341Z,100140.14
2018-09-09T11:44:24.894Z,100144.84
2018-09-09T11:46:00.463Z,100145.64
2018-09-09T11:47:36.090Z,100138.34
2018-09-09T11:49:11.785Z,100143.27
2018-09-09T11:50:47.313Z,100152.41
2018-09-09T11:52:22.810Z,100149.09
2018-09-09T11:53:58.371Z,100139.67
2018-09-09T11:55:33.915Z,100143.72
2018-09-09T11:57:09.733Z,100148.39
2018-09-09T11:58:45.504Z,100151.75
2018-09-09T12:00:21.198Z,100150.00
2018-09-09T12:01:56.895Z,100150.58
2018-09-09T12:03:32.368Z,100139.11
2018-09-09T12:05:07.897Z,100148.47
2018-09-09T12:06:43.782Z,100151.42
2018-09-09T12:08:19.399Z,100150.92
2018-09-09T12:09:55.022Z,100158.31
2018-09-09T12:11:30.630Z,100146.41
2018-09-09T12:13:06.717Z,100152.25
2018-09-09T12:14:43.150Z,100146.13
2018-09-09T12:16:18.886Z,100146.97
2018-09-09T12:17:54.411Z,100138.28
2018-09-09T12:19:29.974Z,100145.98
2018-09-09T12:21:05.702Z,100142.16
2018-09-09T12:22:41.232Z,100138.30
2018-09-09T12:24:16.787Z,100137.77
2018-09-09T12:25:52.380Z,100142.29
2018-09-09T12:27:28.159Z,100138.45
2018-09-09T12:29:03.685Z,100136.14
2018-09-09T12:30:39.256Z,100138.03
2018-09-09T12:32:15.057Z,100138.63
2018-09-09T12:33:50.544Z,100143.81
2018-09-09T12:35:26.082Z,100144.72
2018-09-09T12:37:01.598Z,100139.95
2018-09-09T12:38:37.163Z,100138.17
2018-09-09T12:40:12.721Z,100135.98
2018-09-09T12:41:48.304Z,100142.94
2018-09-09T12:43:29.219Z,100131.87
2018-09-09T12:45:10.382Z,100130.95
2018-09-09T12:46:51.411Z,100137.47
2018-09-09T12:48:32.299Z,100132.31
2018-09-09T12:50:07.854Z,100135.37
2018-09-09T12:51:43.404Z,100134.26
2018-09-09T12:53:18.892Z,100126.44
2018-09-09T12:54:54.433Z,100133.80
2018-09-09T12:56:29.941Z,100128.16
2018-09-09T12:58:05.478Z,100127.09
2018-09-09T12:59:41.033Z,100132.82
2018-09-09T13:01:16.555Z,100127.89
2018-09-09T13:02:52.073Z,100126.08
2018-09-09T13:04:27.601Z,100130.30
2018-09-09T13:06:03.197Z,100129.44
2018-09-09T13:07:38.670Z,100125.08
2018-09-09T13:09:14.250Z,100122.59
2018-09-09T13:10:50.305Z,100125.14
2018-09-09T13:12:30.344Z,100126.20
2018-09-09T13:14:05.883Z,100128.97
2018-09-09T13:15:41.361Z,100128.22
2018-09-09T13:17:16.892Z,100124.08
2018-09-09T13:18:52.476Z,100117.77
2018-09-09T13:20:28.011Z,100114.73
2018-09-09T13:22:03.863Z,100116.55
2018-09-09T13:23:39.423Z,100119.04
2018-09-09T13:25:14.922Z,100112.50
2018-09-09T13:26:51.056Z,100110.42
2018-09-09T13:28:26.566Z,100111.52
2018-09-09T13:30:02.080Z,100112.30
2018-09-09T13:31:37.614Z,100112.30
2018-09-09T13:33:13.159Z,100105.00
2018-09-09T13:34:49.124Z,100105.81
2018-09-09T13:36:24.876Z,100103.16
2018-09-09T13:38:00.349Z,100102.25
2018-09-09T13:39:35.847Z,100098.67
2018-09-09T13:41:11.365Z,100095.95
2018-09-09T13:42:46.890Z,100107.38
2018-09-09T13:44:22.427Z,100100.16
2018-09-09T13:45:57.989Z,100105.04
2018-09-09T13:47:33.476Z,100110.36
2018-09-09T13:49:08.993Z,100107.51
2018-09-09T13:50:44.516Z,100103.52
2018-09-09T13:52:20.108Z,100104.83
2018-09-09T13:53:55.603Z,100108.88
2018-09-09T13:55:31.076Z,100112.08
2018-09-09T13:57:07.559Z,100111.11
2018-09-09T13:58:43.138Z,100116.56
2018-09-09T14:00:18.661Z,100121.98
2018-09-09T14:01:54.175Z,100115.02
2018-09-09T14:03:29.655Z,100121.31
2018-09-09T14:05:06.212Z,100117.02
2018-09-09T14:06:41.663Z,100120.06
2018-09-09T14:08:17.236Z,100114.31
2018-09-09T14:09:52.725Z,100114.75
2018-09-09T14:11:28.226Z,100111.27
2018-09-09T14:13:03.696Z,100114.45
2018-09-09T14:14:39.191Z,100068.81
2018-09-09T14:16:14.719Z,100117.44
2018-09-09T14:17:50.220Z,100112.52
2018-09-09T14:19:25.694Z,100107.65
2018-09-09T14:21:01.238Z,100109.06
2018-09-09T14:22:36.739Z,100110.41
2018-09-09T14:24:12.237Z,100109.02
2018-09-09T14:25:47.769Z,100108.05
2018-09-09T14:27:23.295Z,100111.93
2018-09-09T14:28:58.887Z,100113.05
2018-09-09T14:30:34.395Z,100113.05
2018-09-09T14:32:09.874Z,100114.41
2018-09-09T14:33:45.355Z,100114.73
2018-09-09T14:35:21.198Z,100112.15
2018-09-09T14:36:56.690Z,100109.61
2018-09-09T14:38:38.884Z,100109.55
2018-09-09T14:40:14.444Z,100108.05
2018-09-09T14:41:50.004Z,100107.16
2018-09-09T14:43:25.542Z,100113.14
2018-09-09T14:45:01.149Z,100109.19
2018-09-09T14:46:36.840Z,100110.52
2018-09-09T14:48:12.350Z,100112.30
2018-09-09T14:49:47.914Z,100107.98
2018-09-09T14:51:23.496Z,100110.11
2018-09-09T14:52:58.985Z,100103.09
2018-09-09T14:54:34.476Z,100101.50
2018-09-09T14:56:09.983Z,100104.93
2018-09-09T14:57:45.473Z,100101.53
2018-09-09T14:59:21.076Z,100097.02
2018-09-09T15:00:56.685Z,100098.89
2018-09-09T15:02:32.272Z,100097.20
2018-09-09T15:04:07.769Z,100092.08
2018-09-09T15:05:43.724Z,100096.74
2018-09-09T15:07:19.326Z,100096.46
2018-09-09T15:08:54.891Z,100101.72
2018-09-09T15:10:30.686Z,100110.24
2018-09-09T15:12:06.373Z,100108.27
2018-09-09T15:13:42.033Z,100098.73
2018-09-09T15:15:17.568Z,100100.55
2018-09-09T15:16:53.237Z,100098.94
2018-09-09T15:18:28.868Z,100101.63
2018-09-09T15:20:04.433Z,100101.89
2018-09-09T15:21:39.970Z,100095.61
2018-09-09T15:23:15.532Z,100103.69
2018-09-09T15:24:51.083Z,100098.72
2018-09-09T15:26:26.678Z,100099.85
2018-09-09T15:28:02.364Z,100105.29
2018-09-09T15:29:37.951Z,100103.03
2018-09-09T15:31:13.520Z,100098.58
2018-09-09T15:32:49.106Z,100100.22
2018-09-09T15:34:24.738Z,100096.16
2018-09-09T15:36:00.549Z,100091.58
2018-09-09T15:37:37.024Z,100092.50
2018-09-09T15:39:12.610Z,100090.80
2018-09-09T15:40:48.213Z,100091.95
2018-09-09T15:42:23.798Z,100087.92
2018-09-09T15:43:59.312Z,100086.34
2018-09-09T15:45:34.930Z,100092.27
2018-09-09T15:47:10.476Z,100087.45
2018-09-09T15:48:46.035Z,100091.70
2018-09-09T15:50:21.543Z,100089.61
2018-09-09T15:51:57.881Z,100092.30
2018-09-09T15:53:33.404Z,100087.63
2018-09-09T15:55:08.905Z,100092.32
2018-09-09T15:56:44.525Z,100085.72
2018-09-09T15:58:21.063Z,100087.83
2018-09-09T15:59:56.892Z,100085.70
2018-09-09T16:01:32.614Z,100088.13
2018-09-09T16:03:08.721Z,100045.77
2018-09-09T16:04:44.333Z,100089.36
2018-09-09T16:06:19.868Z,100087.08
2018-09-09T16:07:55.373Z,100091.20
2018-09-09T16:09:30.927Z,100083.62
2018-09-09T16:11:06.429Z,100081.00
2018-09-09T16:12:41.995Z,100090.22
2018-09-09T16:14:17.433Z,100093.48
2018-09-09T16:15:52.933Z,100098.35
2018-09-09T16:17:28.638Z,100099.27
2018-09-09T16:19:04.093Z,100097.28
2018-09-09T16:20:39.641Z,100096.87
2018-09-09T16:22:15.145Z,100101.42
2018-09-09T16:23:50.696Z,100103.41
2018-09-09T16:25:26.412Z,100103.55
2018-09-09T16:27:01.959Z,100103.97
2018-09-09T16:28:37.806Z,100101.08
2018-09-09T16:30:13.546Z,100102.54
2018-09-09T16:31:49.043Z,100103.41
2018-09-09T16:33:24.547Z,100097.66
2018-09-09T16:35:00.087Z,100102.96
2018-09-09T16:36:35.599Z,100098.95
2018-09-09T16:38:11.162Z,100098.43
2018-09-09T16:39:46.811Z,100100.08
2018-09-09T16:41:22.257Z,100103.17
2018-09-09T16:42:58.440Z,100101.78
2018-09-09T16:44:34.970Z,100102.12
2018-09-09T16:46:10.487Z,100108.83
2018-09-09T16:47:46.035Z,100107.58
2018-09-09T16:49:21.671Z,100107.35
2018-09-09T16:50:57.220Z,100104.81
2018-09-09T16:52:32.845Z,100107.07
2018-09-09T16:54:09.550Z,100106.95
2018-09-09T16:55:45.123Z,100103.26
2018-09-09T16:57:20.655Z,100105.16
2018-09-09T16:58:56.228Z,100103.70
2018-09-09T17:00:31.761Z,100096.60
2018-09-09T17:02:07.287Z,100099.05
2018-09-09T17:03:42.900Z,100103.87
2018-09-09T17:05:18.390Z,100101.59
2018-09-09T17:06:53.887Z,100104.34
2018-09-09T17:08:29.418Z,100104.38
2018-09-09T17:10:05.769Z,100102.39
2018-09-09T17:11:41.635Z,100110.57
2018-09-09T17:13:17.227Z,100108.36
2018-09-09T17:14:52.815Z,100108.16
2018-09-09T17:16:28.375Z,100104.21
2018-09-09T17:18:03.929Z,100106.73
2018-09-09T17:19:39.540Z,100110.09
2018-09-09T17:23:05.135Z,100106.27
2018-09-09T17:24:40.675Z,100106.28
2018-09-09T17:26:16.331Z,100108.97
2018-09-09T17:27:51.902Z,100117.18
2018-09-09T17:29:27.420Z,100121.69
2018-09-09T17:31:02.965Z,100123.31
2018-09-09T17:32:38.509Z,100124.03
2018-09-09T17:34:14.147Z,100127.33
2018-09-09T17:35:49.658Z,100122.63
2018-09-09T17:37:25.149Z,100125.97
2018-09-09T17:39:00.821Z,100130.99
2018-09-09T17:40:36.406Z,100134.39
2018-09-09T17:42:12.003Z,100129.16
2018-09-09T17:43:47.716Z,100135.11
2018-09-09T17:45:23.399Z,100136.03
2018-09-09T17:46:59.064Z,100129.98
2018-09-09T17:48:36.212Z,100131.91
2018-09-09T17:50:11.803Z,100133.73
2018-09-09T17:51:47.542Z,100142.55
2018-09-09T17:53:23.141Z,100144.67
2018-09-09T17:54:58.746Z,100143.02
2018-09-09T17:56:40.109Z,100145.03
2018-09-09T17:58:15.236Z,100144.73
2018-09-09T17:59:50.990Z,100138.27
2018-09-09T18:01:26.892Z,100146.27
2018-09-09T18:03:02.533Z,100147.92
2018-09-09T18:04:38.179Z,100149.39
2018-09-09T18:06:13.774Z,100144.33
2018-09-09T18:07:49.360Z,100151.77
2018-09-09T18:09:25.093Z,100148.73
2018-09-09T18:11:01.169Z,100151.61
2018-09-09T18:12:36.892Z,100154.02
2018-09-09T18:14:12.484Z,100155.73
2018-09-09T18:15:48.249Z,100147.09
2018-09-09T18:17:23.953Z,100148.63